Flight Track Log - Related Links

Times and Time Zones

All times are in EDT time to prevent confusion due to time zone crossing. See the SWA655 flight status page for this flight to view local times or setup timezone preferences in your user account.

Time Position Orientation Groundspeed Altitude Reporting Facility
EDT Latitude Longitude Course Direction KTS MPH feet Rate Location/Type
Tue 06:56:08 PM 33.9500 -118.4667 256° West 173 199 2,100  Level Southern TRACON
Tue 06:57:14 PM 33.9356 -118.5361 256° West 208 239 5,900 3,685 Climbing Los Center
Tue 06:58:15 PM 33.9208 -118.6222 258° West 242 278 9,900 2,927 Climbing Los Center
Tue 06:59:17 PM 33.8497 -118.6378 190° South 326 375 11,900 1,645 Climbing Los Center
Tue 07:00:19 PM 33.8522 -118.5528 88° East 257 296 13,300 1,742 Climbing Los Center
Tue 07:01:21 PM 33.9078 -118.4711 51° Northeast 302 348 15,500 1,985 Climbing Los Center
Tue 07:02:35 PM 33.9556 -118.3944 53° Northeast 317 365 17,800 2,559 Climbing Los Center
Tue 07:03:37 PM 34.0217 -118.2767 56° Northeast 349 402 21,300 2,516 Climbing Los Center
Tue 07:04:39 PM 34.0794 -118.1753 55° Northeast 361 415 23,000 823 Climbing Los Center
Tue 07:05:41 PM 34.1478 -118.0528 56° Northeast 366 421 23,000 339 Level Los Center
Tue 07:06:43 PM 34.2044 -117.9533 55° Northeast 361 415 23,700 1,258 Climbing Los Center
Tue 07:07:45 PM 34.2644 -117.8475 56° Northeast 377 434 25,600 1,610 Climbing Los Center
Tue 07:08:46 PM 34.3250 -117.7381 56° Northeast 390 449 27,000 672 Climbing Los Center
Tue 07:09:50 PM 34.3892 -117.6225 56° Northeast 390 449 27,000  Level Los Center
Tue 07:10:50 PM 34.4486 -117.5131 57° Northeast 391 450 27,000  Level Los Center
Tue 07:11:52 PM 34.5083 -117.4072 56° Northeast 384 442 27,000  Level Los Center
Tue 07:12:54 PM 34.5669 -117.3006 56° Northeast 383 441 27,000  Level Los Center
Tue 07:13:56 PM 34.6375 -117.1714 56° Northeast 384 442 27,000  Level Los Center
Tue 07:14:58 PM 34.6944 -117.0675 56° Northeast 374 430 27,000  Level Los Center
Tue 07:16:00 PM 34.7522 -116.9614 56° Northeast 378 435 27,000  Level Los Center
Tue 07:17:02 PM 34.8114 -116.8569 55° Northeast 377 434 27,000  Level Los Center
Tue 07:18:17 PM 34.8747 -116.7603 51° Northeast 367 422 27,000  Level Los Center
Tue 07:19:19 PM 34.9597 -116.6258 52° Northeast 362 417 27,000 -194 Level Los Center
Tue 07:20:21 PM 35.0197 -116.5306 52° Northeast 358 412 26,600 -1,024 Descending Los Center
Tue 07:21:22 PM 35.0736 -116.4447 52° Northeast 334 384 24,900 -1,268 Descending Los Center
Tue 07:22:24 PM 35.1289 -116.3653 50° Northeast 313 360 24,000 -435 Descending Los Center
Tue 07:23:26 PM 35.1942 -116.2869 44° Northeast 324 373 24,000  Level Los Center
Tue 07:24:28 PM 35.2597 -116.2047 46° Northeast 336 387 24,000 -871 Level Los Center
Tue 07:25:30 PM 35.3367 -116.1064 46° Northeast 335 386 22,200 -1,742 Descending Los Center
Tue 07:26:32 PM 35.3992 -116.0272 46° Northeast 324 373 20,400 -1,839 Descending Los Center
Tue 07:27:34 PM 35.4639 -115.9447 46° Northeast 334 384 18,400 -1,935 Descending Los Center
Tue 07:28:36 PM 35.5314 -115.8594 46° Northeast 348 400 16,400 -2,057 Descending Los Center
Tue 07:29:19 PM 35.5833 -115.7969 44° Northeast 338 389 14,800 -1,839 Descending Los Center
Tue 07:29:38 PM 35.5956 -115.7778 52° Northeast 339 390 14,500 -1,672 Descending Los Center
Tue 07:30:20 PM 35.6458 -115.7164 45° Northeast 325 374 13,100 -1,452 Descending Los Center
Tue 07:30:40 PM 35.6683 -115.6850 49° Northeast 321 369 13,000 -100 Descending Los Center
Tue 07:31:20 PM 35.6689 -115.6217 89° East 286 329 13,000 -194 Level Los Center
Tue 07:31:42 PM 35.6658 -115.5919 97° East 286 329 12,800 -1,082 Descending Los Center
Tue 07:32:21 PM 35.6594 -115.5269 97° East 279 321 11,900 -1,452 Descending Los Center
Tue 07:32:44 PM 35.6564 -115.4969 97° East 279 321 11,300 -1,091 Descending Los Center
Tue 07:33:16 PM 35.6656 -115.4456 78° East 257 296 10,900 -774 Descending Los Center
Tue 07:33:46 PM 35.6767 -115.4169 64° Northeast 259 298 10,500 -1,254 Descending Los Center
Tue 07:34:23 PM 35.7119 -115.3803 40° Northeast 239 275 9,500 -1,161 Descending Los Center
Tue 07:34:48 PM 35.7275 -115.3658 37° Northeast 248 285 9,300 -885 Descending Los Center
Tue 07:35:24 PM 35.7706 -115.3428 23° Northeast 235 270 8,600 -968 Descending Los Center
Tue 07:35:50 PM 35.7864 -115.3344 23° Northeast 239 275 8,300 -1,000 Descending Los Center
Tue 07:36:18 PM 35.8228 -115.3150 23° Northeast 225 259 7,700 -1,355 Descending Los Center
Tue 07:36:52 PM 35.8536 -115.2967 26° Northeast 229 264 6,900 -1,254 Descending Los Center
Tue 07:37:25 PM 35.8842 -115.2792 25° Northeast 216 249 6,300 -885 Descending Los Center
Tue 07:37:53 PM 35.9072 -115.2658 25° Northeast 222 255 6,000 -871 Descending Los Center
Tue 07:38:27 PM 35.9381 -115.2481 25° Northeast 209 241 5,400 -774 Descending Los Center
Tue 07:38:55 PM 35.9625 -115.2339 25° Northeast 216 249 5,200 -1,200 Descending Los Center
Tue 07:39:27 PM 35.9917 -115.2172 25° Northeast 207 238 4,200 -1,212 Descending Los Center
Tue 07:40:34 PM 36.0344 -115.1953 23° Northeast 142 163 3,200 -783 Descending Los Center
Tue 07:40:59 PM 36.0450 -115.1872 32° Northeast 110 127 3,000 -689 Descending Los Center
Tue 07:41:35 PM 36.0667 -115.1739 26° Northeast 129 148 2,500 -290 Descending Los Center
Tue 07:42:01 PM 36.0825 -115.1678 17° North 125 144 2,700 -273 Climbing Los Center
Tue 07:43:03 PM 36.1122 -115.1253 49° Northeast 316 364 2,100 -581 Descending Los Center

Login

Don't have an account? Register now (free) for customized features, flight alerts, and more!